Time;durP1;ratioP1;P1;durP2;ratioP2;P2;SDS_P1;SDS_P2;PMS_P1;PMS_P2;Temp;Humidity;BMP_temperature;BMP_pressure;BME280_temperature;BME280_humidity;BME280_pressure;Samples;Min_cycle;Max_cycle;Signal;HPM_P1;HPM_P2
2023/11/01 00:00:05;;;;;;;10.88;2.47;;;;;;;10.67;100.00;100230.63;5039080;28;20029;-69
2023/11/01 00:02:37;;;;;;;12.27;2.40;;;;;;;10.68;100.00;100225.28;5042511;28;20041;-68
2023/11/01 00:05:03;;;;;;;10.32;2.67;;;;;;;10.72;100.00;100230.94;5038822;28;20040;-68
2023/11/01 00:07:28;;;;;;;12.00;2.58;;;;;;;10.73;100.00;100234.31;5041054;28;20033;-68
2023/11/01 00:09:54;;;;;;;22.48;3.97;;;;;;;10.65;100.00;100230.00;5020640;28;20409;-69
2023/11/01 00:12:19;;;;;;;13.82;3.00;;;;;;;10.60;100.00;100230.50;5042066;28;20037;-68
2023/11/01 00:14:45;;;;;;;14.50;2.72;;;;;;;10.57;100.00;100228.25;5040871;28;20025;-69
2023/11/01 00:17:11;;;;;;;13.70;2.90;;;;;;;10.76;100.00;100234.00;5062054;28;20041;-68
2023/11/01 00:19:37;;;;;;;12.02;2.40;;;;;;;10.82;100.00;100228.13;5059078;28;20078;-69
2023/11/01 00:22:02;;;;;;;15.45;2.67;;;;;;;10.79;100.00;100231.03;5054327;28;20537;-68
2023/11/01 00:24:28;;;;;;;8.15;2.08;;;;;;;10.77;100.00;100228.63;5058785;28;20081;-68
2023/11/01 00:26:53;;;;;;;16.25;2.38;;;;;;;10.82;100.00;100225.53;5056048;28;20035;-68
2023/11/01 00:29:19;;;;;;;15.82;2.83;;;;;;;10.73;100.00;100222.16;5042859;28;20028;-68
2023/11/01 00:31:44;;;;;;;10.13;2.00;;;;;;;10.79;100.00;100224.06;5055679;28;21842;-68
2023/11/01 00:34:10;;;;;;;11.23;1.48;;;;;;;10.89;100.00;100213.50;5060452;28;20044;-68
2023/11/01 00:36:35;;;;;;;9.40;1.77;;;;;;;10.83;100.00;100203.78;5057495;28;20049;-69
2023/11/01 00:39:02;;;;;;;8.95;1.58;;;;;;;10.88;100.00;100194.50;5037203;28;20031;-69
2023/11/01 00:41:27;;;;;;;9.07;1.85;;;;;;;10.79;100.00;100197.34;5055407;28;20059;-68
2023/11/01 00:43:53;;;;;;;13.95;1.55;;;;;;;10.66;100.00;100196.13;5038770;28;20056;-69
2023/11/01 00:46:21;;;;;;;8.55;1.55;;;;;;;10.72;100.00;100194.63;5057039;28;20387;-68
2023/11/01 00:48:47;;;;;;;5.65;1.60;;;;;;;10.61;100.00;100185.44;5056804;28;20089;-69
2023/11/01 00:51:12;;;;;;;9.80;2.00;;;;;;;10.61;100.00;100177.69;5051922;28;20033;-69
2023/11/01 00:53:37;;;;;;;7.07;1.85;;;;;;;10.56;100.00;100177.38;5059287;28;20028;-69
2023/11/01 00:56:08;;;;;;;7.07;1.83;;;;;;;10.56;100.00;100182.56;5058570;28;20036;-69
2023/11/01 00:58:34;;;;;;;8.10;1.95;;;;;;;10.52;100.00;100173.50;5054913;28;20079;-68
2023/11/01 01:01:00;;;;;;;8.45;1.50;;;;;;;10.54;100.00;100173.34;5056413;28;20582;-68
2023/11/01 01:03:25;;;;;;;6.60;1.25;;;;;;;10.56;100.00;100161.03;5061056;28;20045;-69
2023/11/01 01:05:51;;;;;;;12.48;2.17;;;;;;;10.55;100.00;100159.38;5049934;28;20052;-68
2023/11/01 01:08:16;;;;;;;8.55;1.67;;;;;;;10.56;100.00;100150.66;5046967;28;20825;-68
2023/11/01 01:10:42;;;;;;;9.75;1.67;;;;;;;10.59;100.00;100155.50;5045905;28;20029;-69
2023/11/01 01:13:07;;;;;;;17.23;2.05;;;;;;;10.65;100.00;100145.22;5045332;28;20040;-68
2023/11/01 01:15:33;;;;;;;6.47;2.20;;;;;;;10.66;100.00;100146.88;5037074;28;20060;-68
2023/11/01 01:17:58;;;;;;;5.53;1.80;;;;;;;10.65;100.00;100140.03;5041922;28;20036;-69
2023/11/01 01:20:24;;;;;;;6.70;1.88;;;;;;;10.60;100.00;100141.53;5026178;28;20045;-68
2023/11/01 01:22:49;;;;;;;7.25;1.80;;;;;;;10.71;100.00;100136.75;5025601;28;20041;-68
2023/11/01 01:25:15;;;;;;;11.30;1.88;;;;;;;10.66;100.00;100130.47;5039152;28;20410;-68
2023/11/01 01:27:41;;;;;;;15.32;2.35;;;;;;;10.67;100.00;100132.09;5042968;28;20037;-68
2023/11/01 01:30:10;;;;;;;9.48;1.67;;;;;;;10.66;100.00;100130.47;5028044;28;20040;-68
2023/11/01 01:32:35;;;;;;;11.38;2.03;;;;;;;10.66;100.00;100128.72;5041103;28;20048;-68
2023/11/01 01:35:01;;;;;;;6.35;1.73;;;;;;;10.54;100.00;100132.66;5038706;28;20572;-69
2023/11/01 01:37:26;;;;;;;8.98;1.35;;;;;;;10.50;100.00;100128.81;5041722;28;20025;-69
2023/11/01 01:39:52;;;;;;;10.60;1.48;;;;;;;10.53;100.00;100120.69;5034938;28;20064;-69
2023/11/01 01:42:18;;;;;;;5.90;1.80;;;;;;;10.50;100.00;100121.84;5043567;28;20037;-69
2023/11/01 01:44:43;;;;;;;8.73;1.60;;;;;;;10.46;100.00;100109.41;5038158;28;20036;-69
2023/11/01 01:47:10;;;;;;;8.40;1.67;;;;;;;10.46;100.00;100109.41;5059770;28;20604;-68
2023/11/01 01:49:35;;;;;;;6.55;1.55;;;;;;;10.46;100.00;100106.81;5060743;28;20040;-69
2023/11/01 01:52:01;;;;;;;6.88;1.75;;;;;;;10.64;100.00;100096.97;5060785;28;20072;-69
2023/11/01 01:54:31;;;;;;;4.80;1.40;;;;;;;10.55;100.00;100097.19;5056995;28;20395;-69
2023/11/01 01:57:00;;;;;;;7.45;1.58;;;;;;;10.47;100.00;100096.28;5052321;28;20040;-69
2023/11/01 01:59:26;;;;;;;8.25;1.30;;;;;;;10.46;100.00;100086.06;5057834;28;20041;-69
2023/11/01 02:01:55;;;;;;;6.72;1.90;;;;;;;10.50;100.00;100084.75;5021463;28;20501;-69
2023/11/01 02:04:24;;;;;;;5.80;1.33;;;;;;;10.56;100.00;100091.03;5036755;28;20048;-68
2023/11/01 02:06:50;;;;;;;12.57;1.75;;;;;;;10.63;100.00;100090.16;5061870;28;20037;-68
2023/11/01 02:09:16;;;;;;;7.75;1.75;;;;;;;10.69;100.00;100089.47;5035066;28;20079;-69
2023/11/01 02:11:45;;;;;;;7.28;1.48;;;;;;;10.74;100.00;100088.13;5036591;28;20048;-69
2023/11/01 02:14:14;;;;;;;3.80;1.20;;;;;;;10.67;100.00;100080.25;5037723;28;20033;-68
2023/11/01 02:16:42;;;;;;;5.45;1.33;;;;;;;10.69;100.00;100086.88;5032619;28;20052;-68
2023/11/01 02:19:09;;;;;;;8.00;1.30;;;;;;;10.53;100.00;100079.22;5037671;28;20583;-68
2023/11/01 02:21:35;;;;;;;8.90;1.38;;;;;;;10.54;100.00;100083.41;5034159;28;20036;-68
2023/11/01 02:24:01;;;;;;;7.78;1.15;;;;;;;10.45;100.00;100074.06;5038738;28;20039;-68
2023/11/01 02:26:27;;;;;;;7.50;1.80;;;;;;;10.49;100.00;100075.34;5052845;28;20049;-69
2023/11/01 02:28:52;;;;;;;5.82;1.30;;;;;;;10.53;100.00;100079.22;5051654;28;20021;-69
2023/11/01 02:31:18;;;;;;;5.72;1.33;;;;;;;10.47;100.00;100067.75;5039379;28;20118;-68
2023/11/01 02:33:44;;;;;;;5.65;1.20;;;;;;;10.43;100.00;100066.47;5031788;28;20036;-68
2023/11/01 02:36:09;;;;;;;4.47;1.00;;;;;;;10.44;100.00;100062.13;5033693;28;20033;-68
2023/11/01 02:38:35;;;;;;;3.80;1.00;;;;;;;10.45;100.00;100063.72;5022121;28;20040;-68
2023/11/01 02:41:00;;;;;;;6.03;0.95;;;;;;;10.40;100.00;100059.06;5021756;28;20430;-68
2023/11/01 02:43:26;;;;;;;5.95;1.10;;;;;;;10.46;100.00;100057.56;5039332;28;20107;-68
2023/11/01 02:45:53;;;;;;;7.50;1.10;;;;;;;10.46;100.00;100049.78;5051538;28;20409;-69
2023/11/01 02:48:18;;;;;;;9.95;1.50;;;;;;;10.46;100.00;100045.41;5055516;28;20036;-69
2023/11/01 02:50:44;;;;;;;3.65;0.88;;;;;;;10.37;100.00;100038.66;5063515;28;20048;-68
2023/11/01 02:53:10;;;;;;;4.07;1.00;;;;;;;10.34;100.00;100028.66;5060805;28;20013;-68
2023/11/01 02:55:35;;;;;;;8.98;1.67;;;;;;;10.36;100.00;100026.69;5034423;28;20033;-68
2023/11/01 02:58:02;;;;;;;4.65;1.27;;;;;;;10.42;100.00;100022.59;5027245;28;20621;-69
2023/11/01 03:00:28;;;;;;;7.22;1.30;;;;;;;10.32;100.00;100017.63;5041721;28;20499;-69
2023/11/01 03:02:57;;;;;;;6.55;1.30;;;;;;;10.40;100.00;100020.19;5038324;28;20045;-68
2023/11/01 03:05:25;;;;;;;8.40;1.45;;;;;;;10.41;100.00;100016.59;5039716;28;20036;-68
2023/11/01 03:07:51;;;;;;;7.97;0.90;;;;;;;10.35;100.00;100013.91;5033701;28;20091;-68
2023/11/01 03:10:17;;;;;;;6.15;1.20;;;;;;;10.34;100.00;100026.06;5034982;28;20041;-68
2023/11/01 03:12:43;;;;;;;3.95;1.02;;;;;;;10.41;100.00;100023.56;5021170;28;20028;-69
2023/11/01 03:15:09;;;;;;;6.97;1.33;;;;;;;10.42;100.00;100009.66;5022978;28;20556;-68
2023/11/01 03:17:35;;;;;;;6.07;1.55;;;;;;;10.39;100.00;100002.22;5038569;28;20097;-68
2023/11/01 03:20:03;;;;;;;10.95;1.65;;;;;;;10.36;100.00;99995.59;5034814;28;20128;-68
2023/11/01 03:22:28;;;;;;;7.57;1.23;;;;;;;10.28;100.00;100008.56;5040209;28;20041;-68
2023/11/01 03:24:54;;;;;;;6.35;1.30;;;;;;;10.21;100.00;100007.63;5023310;28;20035;-69
2023/11/01 03:27:19;;;;;;;9.73;1.65;;;;;;;10.19;100.00;100001.81;5033772;28;20078;-69
2023/11/01 03:29:45;;;;;;;8.93;2.03;;;;;;;10.28;100.00;100012.00;5035410;28;20033;-70
2023/11/01 03:32:10;;;;;;;6.45;1.42;;;;;;;10.19;100.00;99999.25;5060141;28;20126;-69
2023/11/01 03:34:36;;;;;;;12.73;2.33;;;;;;;10.28;100.00;100003.38;5058349;28;20028;-68
2023/11/01 03:37:01;;;;;;;11.98;1.58;;;;;;;10.22;100.00;99994.53;5057428;28;20671;-69
2023/11/01 03:39:27;;;;;;;3.88;1.30;;;;;;;10.18;100.00;99993.25;5055023;28;20065;-69
2023/11/01 03:41:53;;;;;;;5.90;1.38;;;;;;;10.14;100.00;99989.41;5050232;28;20064;-69
2023/11/01 03:44:18;;;;;;;5.75;1.20;;;;;;;10.23;100.00;99988.38;5058770;28;20036;-69
2023/11/01 03:46:45;;;;;;;6.03;1.40;;;;;;;10.25;100.00;99983.81;5043970;28;20116;-69
2023/11/01 03:49:11;;;;;;;8.30;1.33;;;;;;;10.22;100.00;99985.94;5042499;28;20068;-69
2023/11/01 03:51:36;;;;;;;6.72;1.10;;;;;;;10.23;100.00;99983.19;5042281;28;20476;-69
2023/11/01 03:54:02;;;;;;;6.32;1.52;;;;;;;10.19;100.00;99989.69;5041292;28;20128;-69
2023/11/01 03:56:28;;;;;;;5.40;1.27;;;;;;;10.16;100.00;99990.03;5055626;28;20040;-69
2023/11/01 03:58:53;;;;;;;5.80;1.27;;;;;;;10.23;100.00;99979.81;5058133;28;20041;-69
2023/11/01 04:01:19;;;;;;;7.43;1.33;;;;;;;10.26;100.00;99993.19;5024869;28;20052;-69
2023/11/01 04:03:46;;;;;;;2.63;1.10;;;;;;;10.25;100.00;99977.84;5039634;28;20163;-69
2023/11/01 04:06:11;;;;;;;5.03;1.30;;;;;;;10.25;100.00;99981.22;5049848;28;20044;-69
2023/11/01 04:08:40;;;;;;;8.23;1.17;;;;;;;10.28;100.00;99973.13;5057129;28;20028;-68
2023/11/01 04:11:06;;;;;;;6.60;1.27;;;;;;;10.38;100.00;99974.66;5058508;28;20055;-68
2023/11/01 04:13:32;;;;;;;9.38;1.20;;;;;;;10.37;100.00;99975.66;5044132;28;20485;-69
2023/11/01 04:15:57;;;;;;;2.80;1.10;;;;;;;10.41;100.00;99974.34;5070636;28;20101;-69
2023/11/01 04:18:24;;;;;;;6.75;1.27;;;;;;;10.33;100.00;99970.81;5072331;28;20037;-69
2023/11/01 04:20:49;;;;;;;9.40;1.30;;;;;;;10.35;100.00;99962.88;5057478;28;20037;-69
2023/11/01 04:23:16;;;;;;;9.05;1.30;;;;;;;10.45;100.00;99980.78;5056813;28;20044;-69
2023/11/01 04:25:42;;;;;;;7.05;1.10;;;;;;;10.46;100.00;99966.84;5057934;28;20546;-68
2023/11/01 04:28:08;;;;;;;6.88;1.27;;;;;;;10.50;100.00;99973.28;5054407;28;20036;-69
2023/11/01 04:30:38;;;;;;;7.65;1.48;;;;;;;10.50;100.00;99968.91;5059073;28;20041;-69
2023/11/01 04:33:08;;;;;;;6.28;1.25;;;;;;;10.55;100.00;99963.19;5062214;28;20040;-69
2023/11/01 04:35:36;;;;;;;8.27;1.52;;;;;;;10.60;100.00;99971.25;5056971;28;20052;-69
2023/11/01 04:38:02;;;;;;;6.18;1.52;;;;;;;10.60;100.00;99973.03;5058649;28;20116;-69
2023/11/01 04:40:31;;;;;;;6.25;1.60;;;;;;;10.60;100.00;99978.22;5065026;28;20480;-69
2023/11/01 04:42:57;;;;;;;7.65;1.58;;;;;;;10.66;100.00;99969.72;5062917;28;20545;-69
2023/11/01 04:45:23;;;;;;;6.05;1.50;;;;;;;10.62;100.00;99973.66;5064553;28;20078;-69
2023/11/01 04:47:51;;;;;;;6.25;1.55;;;;;;;10.68;100.00;99965.16;5045402;28;20033;-68
2023/11/01 04:50:18;;;;;;;7.10;1.88;;;;;;;10.63;100.00;99957.94;5061135;28;20117;-69
2023/11/01 04:52:44;;;;;;;12.73;1.95;;;;;;;10.71;100.00;99959.63;5062306;28;20032;-69
2023/11/01 04:55:10;;;;;;;8.95;2.25;;;;;;;10.69;100.00;99961.59;5049094;23;20050;-70
2023/11/01 04:57:36;;;;;;;5.75;1.88;;;;;;;10.64;100.00;99961.31;5024507;28;20454;-71
2023/11/01 05:00:08;;;;;;;11.90;3.20;;;;;;;10.80;100.00;99960.38;4994574;28;20072;-71
2023/11/01 05:02:35;;;;;;;8.37;2.20;;;;;;;10.78;100.00;99967.53;5021622;28;20042;-71
2023/11/01 05:05:03;;;;;;;7.28;1.83;;;;;;;10.71;100.00;99957.84;5011302;28;20046;-71
2023/11/01 05:07:32;;;;;;;10.93;2.25;;;;;;;10.73;100.00;99952.50;4987582;28;20021;-71
2023/11/01 05:09:57;;;;;;;7.90;2.30;;;;;;;10.82;100.00;99956.63;5023333;28;20040;-71
2023/11/01 05:12:23;;;;;;;12.38;2.55;;;;;;;10.84;100.00;99953.84;5007772;28;20483;-71
2023/11/01 05:14:48;;;;;;;15.82;2.63;;;;;;;10.88;100.00;99944.72;5002701;28;20041;-71
2023/11/01 05:17:14;;;;;;;9.00;2.22;;;;;;;10.86;100.00;99944.88;5023561;28;20049;-71
2023/11/01 05:19:39;;;;;;;15.30;2.63;;;;;;;10.88;100.00;99940.31;5008550;28;20483;-71
2023/11/01 05:22:05;;;;;;;15.30;1.92;;;;;;;10.85;100.00;99940.72;5026000;28;20053;-71
2023/11/01 05:24:31;;;;;;;8.68;1.95;;;;;;;10.86;100.00;99937.09;5008367;28;20514;-71
2023/11/01 05:26:56;;;;;;;16.00;3.08;;;;;;;10.86;100.00;99937.09;5025287;28;20036;-71
2023/11/01 05:29:22;;;;;;;9.23;2.47;;;;;;;10.82;100.00;99935.88;5020533;28;20034;-71
2023/11/01 05:31:47;;;;;;;9.40;1.88;;;;;;;10.83;100.00;99934.06;5025161;28;20038;-71
2023/11/01 05:34:13;;;;;;;13.38;2.30;;;;;;;10.89;100.00;99923.00;5007583;28;20083;-71
2023/11/01 05:36:38;;;;;;;13.02;2.42;;;;;;;10.81;100.00;99929.09;5024899;28;20531;-71
2023/11/01 05:39:05;;;;;;;16.92;2.40;;;;;;;10.91;100.00;99919.22;5024556;28;20435;-71
2023/11/01 05:41:31;;;;;;;15.15;2.78;;;;;;;10.86;100.00;99913.78;4999601;28;20135;-71
2023/11/01 05:43:57;;;;;;;16.63;2.33;;;;;;;10.90;100.00;99916.81;5008560;28;20056;-71
2023/11/01 05:46:22;;;;;;;13.77;2.10;;;;;;;11.04;100.00;99916.00;5005591;28;20943;-71
2023/11/01 05:48:48;;;;;;;17.98;2.47;;;;;;;11.04;100.00;99920.41;5008436;28;20499;-71
2023/11/01 05:51:14;;;;;;;16.52;2.75;;;;;;;10.98;100.00;99919.34;5025099;28;20506;-71
2023/11/01 05:53:39;;;;;;;18.20;3.15;;;;;;;10.97;100.00;99916.91;5026914;28;20048;-71
2023/11/01 05:56:05;;;;;;;12.23;1.77;;;;;;;10.88;100.00;99916.19;5006516;28;20045;-71
2023/11/01 05:58:31;;;;;;;8.27;1.65;;;;;;;10.89;100.00;99912.63;5022197;28;20034;-71
2023/11/01 06:00:56;;;;;;;18.85;2.38;;;;;;;10.84;100.00;99910.56;5005907;28;20067;-71
2023/11/01 06:03:25;;;;;;;15.05;2.10;;;;;;;10.85;100.00;99916.53;4991222;28;20033;-71
2023/11/01 06:05:50;;;;;;;8.18;1.80;;;;;;;10.87;100.00;99919.78;5023346;28;20051;-71
2023/11/01 06:08:16;;;;;;;13.93;2.17;;;;;;;10.89;100.00;99917.81;5024785;28;20033;-71
2023/11/01 06:10:42;;;;;;;9.43;1.90;;;;;;;10.85;100.00;99914.78;5020592;28;20419;-71
2023/11/01 06:13:07;;;;;;;14.82;1.95;;;;;;;10.84;100.00;99920.13;5001496;28;20117;-71
2023/11/01 06:15:36;;;;;;;10.38;1.60;;;;;;;10.77;100.00;99920.03;5003506;28;20423;-71
2023/11/01 06:18:05;;;;;;;13.32;1.92;;;;;;;10.74;100.00;99922.16;5008260;28;20167;-71
2023/11/01 06:20:32;;;;;;;12.45;2.17;;;;;;;10.77;100.00;99927.81;5007381;28;20504;-71
2023/11/01 06:23:04;;;;;;;8.55;2.13;;;;;;;10.66;100.00;99926.47;5005625;28;20076;-71
2023/11/01 06:25:29;;;;;;;13.32;2.08;;;;;;;10.68;100.00;99928.88;5003542;28;20530;-71
2023/11/01 06:27:55;;;;;;;10.93;1.90;;;;;;;10.65;100.00;99934.44;4993727;28;20037;-71
2023/11/01 06:30:23;;;;;;;16.52;2.17;;;;;;;10.79;100.00;99938.00;5019824;28;20041;-71
2023/11/01 06:32:49;;;;;;;14.55;2.13;;;;;;;10.81;100.00;99934.28;5019534;28;20491;-71
2023/11/01 06:35:14;;;;;;;19.30;1.75;;;;;;;10.84;100.00;99933.09;5005025;28;20041;-71
2023/11/01 06:37:40;;;;;;;18.25;2.17;;;;;;;10.82;100.00;99929.88;5023217;28;20057;-71
2023/11/01 06:40:06;;;;;;;13.13;1.75;;;;;;;10.85;100.00;99939.88;4986315;28;20057;-71
2023/11/01 06:42:31;;;;;;;11.43;2.08;;;;;;;10.78;100.00;99929.44;5003522;28;20527;-70
2023/11/01 06:44:57;;;;;;;18.10;1.90;;;;;;;10.77;100.00;99932.19;5002613;28;20114;-71
2023/11/01 06:47:23;;;;;;;14.32;2.28;;;;;;;10.72;100.00;99932.75;5005965;28;20171;-71
2023/11/01 06:49:48;;;;;;;8.00;1.85;;;;;;;10.66;100.00;99928.25;5004575;28;20049;-71
2023/11/01 06:52:14;;;;;;;15.10;1.73;;;;;;;10.78;100.00;99931.22;5023032;28;20047;-71
2023/11/01 06:54:45;;;;;;;20.23;2.03;;;;;;;10.80;100.00;99935.25;5021678;28;20510;-70
2023/11/01 06:57:11;;;;;;;12.98;1.95;;;;;;;10.81;100.00;99933.44;5019602;28;20103;-70
2023/11/01 06:59:41;;;;;;;12.38;1.70;;;;;;;10.85;100.00;99929.50;5003065;28;20035;-71
2023/11/01 07:02:07;;;;;;;8.20;1.83;;;;;;;10.93;100.00;99933.81;5017787;28;20431;-71
2023/11/01 07:04:32;;;;;;;20.55;2.95;;;;;;;11.02;100.00;99930.13;5019383;28;20041;-70
2023/11/01 07:06:58;;;;;;;11.93;2.00;;;;;;;10.95;100.00;99934.44;5021438;28;20065;-70
2023/11/01 07:09:24;;;;;;;13.18;1.98;;;;;;;11.00;100.00;99934.69;5023739;28;20164;-71
2023/11/01 07:11:52;;;;;;;12.30;2.78;;;;;;;10.96;100.00;99928.25;5001777;28;20038;-71
2023/11/01 07:14:18;;;;;;;17.67;2.95;;;;;;;10.97;100.00;99928.09;5020755;28;20052;-70
2023/11/01 07:16:46;;;;;;;17.83;4.38;;;;;;;10.97;100.00;99930.69;5004456;28;20076;-70
2023/11/01 07:19:12;;;;;;;12.63;3.42;;;;;;;11.00;100.00;99929.50;5003755;28;20197;-70
2023/11/01 07:21:40;;;;;;;15.32;2.72;;;;;;;11.05;100.00;99927.19;4996325;28;20525;-70
2023/11/01 07:24:09;;;;;;;14.38;2.50;;;;;;;11.10;100.00;99928.25;5004295;28;20037;-70
2023/11/01 07:26:37;;;;;;;10.23;2.60;;;;;;;11.01;100.00;99920.75;5020941;28;20659;-70
2023/11/01 07:29:03;;;;;;;12.00;3.22;;;;;;;10.99;100.00;99923.53;5004265;28;20040;-70
2023/11/01 07:31:28;;;;;;;11.00;2.05;;;;;;;11.02;100.00;99919.75;5019443;28;20029;-70
2023/11/01 07:33:54;;;;;;;12.88;2.58;;;;;;;10.96;100.00;99926.47;5001921;28;20033;-70
2023/11/01 07:36:22;;;;;;;16.35;2.85;;;;;;;11.19;100.00;99922.97;5018842;28;20512;-70
2023/11/01 07:38:49;;;;;;;13.07;2.00;;;;;;;11.07;100.00;99918.22;5014800;28;20029;-70
2023/11/01 07:41:15;;;;;;;12.32;2.10;;;;;;;11.12;100.00;99917.69;5000946;28;20033;-70
2023/11/01 07:43:43;;;;;;;17.35;2.42;;;;;;;11.18;100.00;99924.75;5005138;28;20126;-70
2023/11/01 07:46:12;;;;;;;16.42;1.90;;;;;;;11.12;100.00;99917.69;5018320;28;20095;-70
2023/11/01 07:48:38;;;;;;;13.05;2.63;;;;;;;11.18;100.00;99923.97;5003520;28;20088;-70
2023/11/01 07:51:07;;;;;;;15.90;2.15;;;;;;;11.25;100.00;99924.84;5017510;28;20507;-70
2023/11/01 07:53:33;;;;;;;12.77;2.05;;;;;;;11.24;100.00;99918.03;4989133;28;20057;-70
2023/11/01 07:55:59;;;;;;;17.08;1.90;;;;;;;11.28;100.00;99925.28;5000821;28;20042;-71
2023/11/01 07:58:25;;;;;;;11.77;1.63;;;;;;;11.34;100.00;99917.75;5003657;28;20025;-70
2023/11/01 08:00:50;;;;;;;17.70;2.45;;;;;;;11.35;100.00;99917.56;5018427;28;20041;-70
2023/11/01 08:03:19;;;;;;;10.10;1.63;;;;;;;11.37;100.00;99915.59;5020863;28;20040;-70
2023/11/01 08:05:44;;;;;;;26.02;3.55;;;;;;;11.40;100.00;99919.63;5000355;28;20468;-70
2023/11/01 08:08:10;;;;;;;16.70;3.75;;;;;;;11.50;100.00;99915.75;5020680;28;20034;-70
2023/11/01 08:10:36;;;;;;;15.07;3.05;;;;;;;11.52;100.00;99920.75;5002529;28;20572;-70
2023/11/01 08:13:02;;;;;;;9.13;1.88;;;;;;;11.57;100.00;99912.44;5006696;28;20033;-70
2023/11/01 08:15:27;;;;;;;14.07;2.50;;;;;;;11.60;100.00;99917.22;5007105;28;20069;-70
2023/11/01 08:17:53;;;;;;;12.27;1.90;;;;;;;11.67;100.00;99912.91;5003278;28;20498;-70
2023/11/01 08:20:18;;;;;;;9.95;1.90;;;;;;;11.69;100.00;99916.94;4996528;28;20038;-70
2023/11/01 08:22:44;;;;;;;12.90;2.10;;;;;;;11.72;100.00;99914.97;5009628;28;20032;-70
2023/11/01 08:25:09;;;;;;;10.88;1.75;;;;;;;11.76;100.00;99918.81;5006071;28;20033;-70
2023/11/01 08:27:35;;;;;;;7.55;1.95;;;;;;;11.90;100.00;99912.75;5007679;28;20510;-70
2023/11/01 08:30:24;;;;;;;13.20;1.60;;;;;;;11.94;100.00;99906.22;4993551;28;20045;-70
2023/11/01 08:32:50;;;;;;;8.90;1.50;;;;;;;12.03;100.00;99905.09;5002911;28;20172;-70
2023/11/01 08:35:16;;;;;;;10.23;1.55;;;;;;;12.05;100.00;99902.31;5021343;28;20045;-70
2023/11/01 08:37:43;;;;;;;14.02;1.90;;;;;;;12.06;100.00;99906.53;5021135;28;20036;-70
2023/11/01 08:40:09;;;;;;;7.53;1.35;;;;;;;12.13;100.00;99906.56;5007285;28;20068;-70
2023/11/01 08:42:34;;;;;;;12.38;1.88;;;;;;;12.16;100.00;99903.59;5024695;28;20602;-71
2023/11/01 08:45:00;;;;;;;15.05;1.92;;;;;;;12.09;100.00;99900.94;4992962;28;20044;-70
2023/11/01 08:47:39;;;;;;;12.95;2.15;;;;;;;12.12;100.00;99894.56;5024648;28;20033;-70
2023/11/01 08:50:07;;;;;;;7.53;1.50;;;;;;;12.14;100.00;99898.59;5019427;28;20049;-70
2023/11/01 08:52:32;;;;;;;12.68;1.77;;;;;;;12.17;100.00;99898.22;5024465;28;20826;-70
2023/11/01 08:54:59;;;;;;;9.88;1.85;;;;;;;12.20;100.00;99903.03;5006682;28;20033;-70
2023/11/01 08:57:26;;;;;;;11.57;1.80;;;;;;;12.16;100.00;99901.81;4992969;28;20029;-70
2023/11/01 08:59:57;;;;;;;10.05;2.97;;;;;;;12.24;100.00;99893.88;5021783;28;20052;-70
2023/11/01 09:02:22;;;;;;;11.85;3.92;;;;;;;12.25;100.00;99900.69;5021570;28;20059;-70
2023/11/01 09:04:48;;;;;;;13.32;2.28;;;;;;;12.35;100.00;99902.13;5020667;28;20033;-70
2023/11/01 09:07:14;;;;;;;9.40;1.50;;;;;;;12.45;100.00;99898.22;5009815;28;20059;-70
2023/11/01 09:09:39;;;;;;;14.57;2.63;;;;;;;12.36;100.00;99895.97;5005772;28;20048;-70
2023/11/01 09:12:05;;;;;;;9.63;1.98;;;;;;;12.36;100.00;99899.34;5020807;28;20558;-71
2023/11/01 09:14:30;;;;;;;6.28;2.15;;;;;;;12.36;100.00;99895.97;5024170;28;20131;-70
2023/11/01 09:16:56;;;;;;;8.35;1.73;;;;;;;12.52;100.00;99902.66;5022455;28;20030;-70
2023/11/01 09:19:21;;;;;;;9.25;3.08;;;;;;;12.41;100.00;99903.97;5025795;28;20533;-70
2023/11/01 09:21:47;;;;;;;12.07;2.00;;;;;;;12.34;100.00;99909.16;4991144;28;20471;-71
2023/11/01 09:24:12;;;;;;;8.48;2.20;;;;;;;12.32;100.00;99897.31;5007523;28;20041;-71
2023/11/01 09:26:40;;;;;;;7.85;1.40;;;;;;;12.29;100.00;99903.69;5026950;28;20042;-70
2023/11/01 09:29:06;;;;;;;9.48;2.28;;;;;;;12.35;100.00;99902.94;5010330;28;20041;-70
2023/11/01 09:31:35;;;;;;;8.05;2.35;;;;;;;12.39;100.00;99896.38;4993635;28;20034;-70
2023/11/01 09:34:01;;;;;;;11.75;1.35;;;;;;;12.44;100.00;99901.81;5009148;28;20036;-70
2023/11/01 09:36:27;;;;;;;15.13;2.13;;;;;;;12.41;100.00;99897.00;5024119;28;20049;-70
2023/11/01 09:38:53;;;;;;;12.70;1.80;;;;;;;12.46;100.00;99899.81;5028962;28;20399;-71
2023/11/01 09:41:27;;;;;;;10.40;1.85;;;;;;;12.48;100.00;99896.22;4997189;28;20534;-71
2023/11/01 09:43:56;;;;;;;9.13;1.48;;;;;;;12.50;100.00;99892.44;4991153;28;20025;-70
2023/11/01 09:46:22;;;;;;;9.30;1.33;;;;;;;12.71;100.00;99886.34;5006545;28;20049;-70
2023/11/01 09:48:54;;;;;;;6.35;1.13;;;;;;;12.73;100.00;99886.16;5027060;28;20053;-70
2023/11/01 09:51:21;;;;;;;7.80;1.33;;;;;;;12.75;100.00;99886.78;5007138;28;20041;-70
2023/11/01 09:53:47;;;;;;;11.95;1.38;;;;;;;12.79;100.00;99881.03;5005709;28;20052;-70
2023/11/01 09:56:12;;;;;;;9.75;1.35;;;;;;;12.77;100.00;99885.63;5009351;28;20049;-70
2023/11/01 09:58:41;;;;;;;11.27;1.75;;;;;;;12.85;100.00;99879.44;5009297;28;20037;-70
2023/11/01 10:01:07;;;;;;;11.30;1.42;;;;;;;12.83;100.00;99882.22;4989453;28;20030;-70
2023/11/01 10:03:32;;;;;;;4.90;1.20;;;;;;;12.87;100.00;99881.84;5008813;28;20128;-71
2023/11/01 10:05:58;;;;;;;10.43;1.40;;;;;;;12.97;100.00;99877.88;5003826;28;20050;-70
2023/11/01 10:08:23;;;;;;;4.47;1.20;;;;;;;13.04;100.00;99872.72;5022510;28;20036;-70
2023/11/01 10:10:50;;;;;;;15.00;1.65;;;;;;;13.23;100.00;99860.78;5003528;28;20041;-71
2023/11/01 10:13:15;;;;;;;11.25;1.23;;;;;;;13.27;100.00;99853.38;5027326;28;20099;-70
2023/11/01 10:15:41;;;;;;;9.80;1.10;;;;;;;13.35;100.00;99848.81;5008460;28;20500;-70
2023/11/01 10:18:07;;;;;;;11.63;1.73;;;;;;;13.39;100.00;99851.81;5007943;28;20541;-71
2023/11/01 10:20:32;;;;;;;8.18;1.13;;;;;;;13.36;100.00;99855.63;5010354;28;20491;-71
2023/11/01 10:22:58;;;;;;;8.75;1.10;;;;;;;13.46;100.00;99852.63;5004586;28;20030;-70
2023/11/01 10:25:24;;;;;;;8.60;1.55;;;;;;;13.45;100.00;99843.22;5007235;28;20034;-71
2023/11/01 10:27:50;;;;;;;9.25;1.15;;;;;;;13.38;100.00;99840.59;5020134;28;20510;-70
2023/11/01 10:30:16;;;;;;;13.48;1.27;;;;;;;13.41;100.00;99839.41;5006817;28;20049;-70
2023/11/01 10:32:56;;;;;;;7.75;1.65;;;;;;;13.41;100.00;99840.22;5023856;28;20033;-71
2023/11/01 10:35:22;;;;;;;4.53;1.05;;;;;;;13.41;100.00;99836.78;5019765;28;20514;-70
2023/11/01 10:37:59;;;;;;;7.97;1.75;;;;;;;13.58;100.00;99829.41;5008107;28;20037;-71
2023/11/01 10:40:27;;;;;;;7.60;1.75;;;;;;;13.60;100.00;99817.00;5022421;28;20060;-71
2023/11/01 10:42:56;;;;;;;6.28;1.20;;;;;;;13.70;99.29;99830.44;4995406;28;20044;-71
2023/11/01 10:45:21;;;;;;;5.68;1.10;;;;;;;13.67;99.34;99817.78;5001745;28;20041;-71
2023/11/01 10:47:47;;;;;;;7.22;1.40;;;;;;;13.80;98.65;99811.78;5004491;28;20025;-70
2023/11/01 10:50:13;;;;;;;6.60;1.23;;;;;;;13.90;98.98;99808.78;5016833;28;20192;-71
2023/11/01 10:52:41;;;;;;;5.10;1.00;;;;;;;13.87;97.58;99806.59;5020049;28;20029;-71
2023/11/01 10:55:09;;;;;;;8.18;1.00;;;;;;;13.88;96.86;99798.56;5018633;28;20049;-71
2023/11/01 10:57:35;;;;;;;8.52;1.13;;;;;;;14.00;96.37;99796.16;5002626;28;20505;-72
2023/11/01 11:00:15;;;;;;;4.03;1.10;;;;;;;13.90;96.29;99796.56;5017360;28;20029;-70
2023/11/01 11:02:50;;;;;;;9.13;1.20;;;;;;;14.01;96.52;99782.09;5021765;28;20041;-71
2023/11/01 11:05:22;;;;;;;6.72;0.93;;;;;;;14.02;96.96;99787.13;5016562;28;20052;-71
2023/11/01 11:07:54;;;;;;;9.07;1.30;;;;;;;13.93;96.67;99788.31;5000070;28;20044;-71
2023/11/01 11:10:26;;;;;;;5.80;1.33;;;;;;;13.94;97.14;99774.31;5015649;28;20037;-70
2023/11/01 11:13:12;;;;;;;5.68;0.93;;;;;;;13.98;96.69;99772.09;4998973;28;21482;-72
2023/11/01 11:16:03;;;;;;;7.90;1.75;;;;;;;13.96;95.03;99763.69;5018938;28;20088;-71